sensor_id;sensor_type;location;lat;lon;timestamp;pressure;altitude;pressure_sealevel;temperature;humidity
59487;BME280;45298;54.918;73.504;2022-12-10T00:01:50;101524.69;;;-18.68;79.50
59487;BME280;45298;54.918;73.504;2022-12-10T00:04:20;101511.94;;;-18.70;79.87
59487;BME280;45298;54.918;73.504;2022-12-10T00:06:49;101515.81;;;-18.63;79.75
59487;BME280;45298;54.918;73.504;2022-12-10T00:09:19;101543.34;;;-18.45;79.56
59487;BME280;45298;54.918;73.504;2022-12-10T00:11:48;101508.97;;;-18.53;79.15
59487;BME280;45298;54.918;73.504;2022-12-10T00:14:17;101510.97;;;-18.49;80.01
59487;BME280;45298;54.918;73.504;2022-12-10T00:16:46;101433.41;;;-18.81;79.97
59487;BME280;45298;54.918;73.504;2022-12-10T00:19:15;101523.91;;;-18.24;80.43
59487;BME280;45298;54.918;73.504;2022-12-10T00:21:44;101548.75;;;-18.08;79.28
59487;BME280;45298;54.918;73.504;2022-12-10T00:24:14;101522.34;;;-18.22;79.55
59487;BME280;45298;54.918;73.504;2022-12-10T00:26:42;101520.97;;;-18.18;79.55
59487;BME280;45298;54.918;73.504;2022-12-10T00:29:14;101504.53;;;-18.24;79.16
59487;BME280;45298;54.918;73.504;2022-12-10T00:31:43;101541.88;;;-17.99;79.15
59487;BME280;45298;54.918;73.504;2022-12-10T00:34:14;101515.38;;;-18.14;79.17
59487;BME280;45298;54.918;73.504;2022-12-10T00:36:45;101543.88;;;-17.95;79.28
59487;BME280;45298;54.918;73.504;2022-12-10T00:39:18;101513.28;;;-18.08;79.56
59487;BME280;45298;54.918;73.504;2022-12-10T00:41:48;101536.81;;;-17.99;79.56
59487;BME280;45298;54.918;73.504;2022-12-10T00:44:19;101524.00;;;-18.00;79.01
59487;BME280;45298;54.918;73.504;2022-12-10T00:46:48;101479.09;;;-18.25;78.63
59487;BME280;45298;54.918;73.504;2022-12-10T00:49:17;101518.72;;;-18.03;79.06
59487;BME280;45298;54.918;73.504;2022-12-10T00:51:46;101438.31;;;-18.50;79.38
59487;BME280;45298;54.918;73.504;2022-12-10T00:54:14;101522.03;;;-18.04;79.22
59487;BME280;45298;54.918;73.504;2022-12-10T00:56:46;101510.31;;;-18.14;78.68
59487;BME280;45298;54.918;73.504;2022-12-10T00:59:15;101537.44;;;-18.01;79.52
59487;BME280;45298;54.918;73.504;2022-12-10T01:01:44;101525.13;;;-18.19;79.46
59487;BME280;45298;54.918;73.504;2022-12-10T01:04:15;101508.47;;;-18.27;79.47
59487;BME280;45298;54.918;73.504;2022-12-10T01:06:50;101518.72;;;-18.26;79.20
59487;BME280;45298;54.918;73.504;2022-12-10T01:09:25;101508.16;;;-18.42;78.73
59487;BME280;45298;54.918;73.504;2022-12-10T01:11:56;101562.88;;;-18.22;79.22
59487;BME280;45298;54.918;73.504;2022-12-10T01:14:28;101507.41;;;-18.51;79.07
59487;BME280;45298;54.918;73.504;2022-12-10T01:17:00;101533.06;;;-18.36;79.36
59487;BME280;45298;54.918;73.504;2022-12-10T01:19:32;101521.97;;;-18.49;79.03
59487;BME280;45298;54.918;73.504;2022-12-10T01:22:01;101532.63;;;-18.53;78.88
59487;BME280;45298;54.918;73.504;2022-12-10T01:24:31;101522.91;;;-18.59;78.83
59487;BME280;45298;54.918;73.504;2022-12-10T01:27:00;101541.75;;;-18.55;78.96
59487;BME280;45298;54.918;73.504;2022-12-10T01:29:28;101525.44;;;-18.69;78.76
59487;BME280;45298;54.918;73.504;2022-12-10T01:31:57;101522.53;;;-18.63;79.15
59487;BME280;45298;54.918;73.504;2022-12-10T01:34:26;101562.75;;;-18.46;79.21
59487;BME280;45298;54.918;73.504;2022-12-10T01:36:56;101558.44;;;-18.47;79.28
59487;BME280;45298;54.918;73.504;2022-12-10T01:39:25;101552.13;;;-18.52;79.14
59487;BME280;45298;54.918;73.504;2022-12-10T01:42:00;101520.13;;;-18.62;79.28
59487;BME280;45298;54.918;73.504;2022-12-10T01:47:01;101527.91;;;-18.48;79.26
59487;BME280;45298;54.918;73.504;2022-12-10T01:49:38;101544.72;;;-18.39;79.37
59487;BME280;45298;54.918;73.504;2022-12-10T01:52:10;101540.78;;;-18.35;78.88
59487;BME280;45298;54.918;73.504;2022-12-10T01:54:43;101556.19;;;-18.32;78.88
59487;BME280;45298;54.918;73.504;2022-12-10T01:57:21;101529.69;;;-18.47;78.51
59487;BME280;45298;54.918;73.504;2022-12-10T01:59:57;101452.97;;;-19.01;79.03
59487;BME280;45298;54.918;73.504;2022-12-10T02:02:44;101540.06;;;-18.44;79.28
59487;BME280;45298;54.918;73.504;2022-12-10T02:05:34;101529.22;;;-18.53;78.86
59487;BME280;45298;54.918;73.504;2022-12-10T02:08:33;101548.25;;;-18.36;79.18
59487;BME280;45298;54.918;73.504;2022-12-10T02:11:20;101513.38;;;-18.51;79.60
59487;BME280;45298;54.918;73.504;2022-12-10T02:13:58;101523.34;;;-18.42;79.13
59487;BME280;45298;54.918;73.504;2022-12-10T02:16:38;101429.75;;;-18.85;78.73
59487;BME280;45298;54.918;73.504;2022-12-10T02:21:51;101514.16;;;-18.30;79.11
59487;BME280;45298;54.918;73.504;2022-12-10T02:24:27;101513.22;;;-18.20;78.89
59487;BME280;45298;54.918;73.504;2022-12-10T02:29:32;101510.47;;;-18.01;79.00
59487;BME280;45298;54.918;73.504;2022-12-10T02:32:18;101489.22;;;-18.03;79.14
59487;BME280;45298;54.918;73.504;2022-12-10T02:34:54;101526.97;;;-17.72;79.00
59487;BME280;45298;54.918;73.504;2022-12-10T02:37:30;101511.75;;;-17.72;79.15
59487;BME280;45298;54.918;73.504;2022-12-10T02:40:07;101483.31;;;-17.80;78.58
59487;BME280;45298;54.918;73.504;2022-12-10T02:42:44;101528.84;;;-17.47;79.37
59487;BME280;45298;54.918;73.504;2022-12-10T02:45:16;101505.44;;;-17.55;78.76
59487;BME280;45298;54.918;73.504;2022-12-10T02:47:49;101525.31;;;-17.37;78.83
59487;BME280;45298;54.918;73.504;2022-12-10T02:50:19;101510.06;;;-17.49;78.77
59487;BME280;45298;54.918;73.504;2022-12-10T02:52:50;101525.56;;;-17.34;79.08
59487;BME280;45298;54.918;73.504;2022-12-10T02:55:20;101527.22;;;-17.23;78.57
59487;BME280;45298;54.918;73.504;2022-12-10T03:01:27;101511.94;;;-17.12;78.50
59487;BME280;45298;54.918;73.504;2022-12-10T03:04:22;101494.63;;;-17.18;78.90
59487;BME280;45298;54.918;73.504;2022-12-10T03:07:05;101484.47;;;-17.18;78.86
59487;BME280;45298;54.918;73.504;2022-12-10T03:09:49;101424.63;;;-17.50;79.13
59487;BME280;45298;54.918;73.504;2022-12-10T03:12:36;101479.41;;;-17.18;79.25
59487;BME280;45298;54.918;73.504;2022-12-10T03:15:09;101505.19;;;-17.00;78.65
59487;BME280;45298;54.918;73.504;2022-12-10T03:17:39;101421.22;;;-17.51;78.97
59487;BME280;45298;54.918;73.504;2022-12-10T03:20:13;101496.50;;;-17.04;78.55
59487;BME280;45298;54.918;73.504;2022-12-10T03:22:46;101498.25;;;-17.03;78.69
59487;BME280;45298;54.918;73.504;2022-12-10T03:25:19;101497.72;;;-16.98;78.86
59487;BME280;45298;54.918;73.504;2022-12-10T03:27:51;101471.97;;;-17.15;78.35
59487;BME280;45298;54.918;73.504;2022-12-10T03:30:22;101482.72;;;-17.07;78.75
59487;BME280;45298;54.918;73.504;2022-12-10T03:32:51;101483.25;;;-16.99;78.29
59487;BME280;45298;54.918;73.504;2022-12-10T03:35:22;101474.88;;;-16.98;78.60
59487;BME280;45298;54.918;73.504;2022-12-10T03:37:53;101452.38;;;-17.06;78.33
59487;BME280;45298;54.918;73.504;2022-12-10T03:40:23;101488.50;;;-16.84;78.73
59487;BME280;45298;54.918;73.504;2022-12-10T03:42:53;101396.97;;;-17.35;79.39
59487;BME280;45298;54.918;73.504;2022-12-10T03:45:21;101459.03;;;-16.94;79.40
59487;BME280;45298;54.918;73.504;2022-12-10T03:47:50;101489.63;;;-16.81;78.57
59487;BME280;45298;54.918;73.504;2022-12-10T03:50:19;101508.81;;;-16.73;78.96
59487;BME280;45298;54.918;73.504;2022-12-10T03:52:48;101475.25;;;-16.92;78.18
59487;BME280;45298;54.918;73.504;2022-12-10T03:55:17;101516.34;;;-16.74;79.01
59487;BME280;45298;54.918;73.504;2022-12-10T03:57:45;101497.56;;;-16.88;78.72
59487;BME280;45298;54.918;73.504;2022-12-10T04:00:14;101501.56;;;-16.80;79.20
59487;BME280;45298;54.918;73.504;2022-12-10T04:02:43;101508.59;;;-16.76;79.24
59487;BME280;45298;54.918;73.504;2022-12-10T04:05:12;101507.72;;;-16.76;78.27
59487;BME280;45298;54.918;73.504;2022-12-10T04:07:41;101514.34;;;-16.66;79.06
59487;BME280;45298;54.918;73.504;2022-12-10T04:10:10;101508.94;;;-16.71;79.29
59487;BME280;45298;54.918;73.504;2022-12-10T04:12:38;101504.50;;;-16.74;79.76
59487;BME280;45298;54.918;73.504;2022-12-10T04:15:08;101489.63;;;-16.81;79.29
59487;BME280;45298;54.918;73.504;2022-12-10T04:17:55;101496.13;;;-16.73;79.81
59487;BME280;45298;54.918;73.504;2022-12-10T04:20:24;101515.88;;;-16.57;79.19
59487;BME280;45298;54.918;73.504;2022-12-10T04:23:11;101522.59;;;-16.45;78.92
59487;BME280;45298;54.918;73.504;2022-12-10T04:25:58;101521.94;;;-16.43;78.51
59487;BME280;45298;54.918;73.504;2022-12-10T04:28:45;101456.72;;;-16.79;79.96
59487;BME280;45298;54.918;73.504;2022-12-10T04:31:14;101522.34;;;-16.36;79.05
59487;BME280;45298;54.918;73.504;2022-12-10T04:33:43;101496.44;;;-16.56;78.99
59487;BME280;45298;54.918;73.504;2022-12-10T04:36:12;101532.19;;;-16.29;78.84
59487;BME280;45298;54.918;73.504;2022-12-10T04:38:41;101441.50;;;-16.79;79.60
59487;BME280;45298;54.918;73.504;2022-12-10T04:41:10;101507.13;;;-16.36;79.39
59487;BME280;45298;54.918;73.504;2022-12-10T04:43:43;101528.09;;;-16.27;79.08
59487;BME280;45298;54.918;73.504;2022-12-10T04:46:12;101542.00;;;-16.10;80.41
59487;BME280;45298;54.918;73.504;2022-12-10T04:48:41;101528.41;;;-16.11;80.03
59487;BME280;45298;54.918;73.504;2022-12-10T04:51:10;101535.78;;;-16.02;79.80
59487;BME280;45298;54.918;73.504;2022-12-10T04:53:39;101518.66;;;-16.04;79.16
59487;BME280;45298;54.918;73.504;2022-12-10T04:56:07;101538.06;;;-15.93;79.01
59487;BME280;45298;54.918;73.504;2022-12-10T04:58:36;101546.69;;;-15.91;79.19
59487;BME280;45298;54.918;73.504;2022-12-10T05:01:07;101450.47;;;-16.35;79.08
59487;BME280;45298;54.918;73.504;2022-12-10T05:03:36;101542.63;;;-15.75;79.70
59487;BME280;45298;54.918;73.504;2022-12-10T05:06:08;101522.47;;;-15.86;79.29
59487;BME280;45298;54.918;73.504;2022-12-10T05:08:39;101528.81;;;-15.79;79.55
59487;BME280;45298;54.918;73.504;2022-12-10T05:11:12;101466.97;;;-16.17;78.98
59487;BME280;45298;54.918;73.504;2022-12-10T05:13:41;101546.47;;;-15.69;79.59
59487;BME280;45298;54.918;73.504;2022-12-10T05:16:13;101536.19;;;-15.70;79.60
59487;BME280;45298;54.918;73.504;2022-12-10T05:18:43;101551.63;;;-15.55;79.23
59487;BME280;45298;54.918;73.504;2022-12-10T05:21:13;101557.00;;;-15.51;79.71
59487;BME280;45298;54.918;73.504;2022-12-10T05:23:46;101566.25;;;-15.39;79.78
59487;BME280;45298;54.918;73.504;2022-12-10T05:26:19;101565.69;;;-15.35;79.33
59487;BME280;45298;54.918;73.504;2022-12-10T05:28:50;101540.41;;;-15.45;79.99
59487;BME280;45298;54.918;73.504;2022-12-10T05:31:27;101567.88;;;-15.28;79.29
59487;BME280;45298;54.918;73.504;2022-12-10T05:33:56;101555.97;;;-15.41;80.14
59487;BME280;45298;54.918;73.504;2022-12-10T05:36:28;101562.56;;;-15.31;79.98
59487;BME280;45298;54.918;73.504;2022-12-10T05:38:58;101501.22;;;-15.61;79.75
59487;BME280;45298;54.918;73.504;2022-12-10T05:41:29;101591.31;;;-15.07;79.86
59487;BME280;45298;54.918;73.504;2022-12-10T05:43:58;101558.09;;;-15.22;80.27
59487;BME280;45298;54.918;73.504;2022-12-10T05:46:30;101496.94;;;-15.48;79.95
59487;BME280;45298;54.918;73.504;2022-12-10T05:49:01;101550.28;;;-15.11;80.34
59487;BME280;45298;54.918;73.504;2022-12-10T05:51:32;101555.22;;;-15.01;79.92
59487;BME280;45298;54.918;73.504;2022-12-10T05:54:01;101559.91;;;-14.94;79.84
59487;BME280;45298;54.918;73.504;2022-12-10T05:56:31;101562.47;;;-14.80;80.34
59487;BME280;45298;54.918;73.504;2022-12-10T05:59:02;101527.81;;;-14.92;80.28
59487;BME280;45298;54.918;73.504;2022-12-10T06:01:33;101576.19;;;-14.51;80.65
59487;BME280;45298;54.918;73.504;2022-12-10T06:04:04;101556.59;;;-14.52;80.92
59487;BME280;45298;54.918;73.504;2022-12-10T06:06:35;101565.41;;;-14.34;80.69
59487;BME280;45298;54.918;73.504;2022-12-10T06:09:06;101558.66;;;-14.33;80.34
59487;BME280;45298;54.918;73.504;2022-12-10T06:11:35;101516.59;;;-14.53;80.97
59487;BME280;45298;54.918;73.504;2022-12-10T06:14:06;101481.16;;;-14.64;80.54
59487;BME280;45298;54.918;73.504;2022-12-10T06:16:34;101562.44;;;-14.13;80.58
59487;BME280;45298;54.918;73.504;2022-12-10T06:19:03;101567.34;;;-14.03;80.14
59487;BME280;45298;54.918;73.504;2022-12-10T06:21:32;101540.47;;;-14.11;80.66
59487;BME280;45298;54.918;73.504;2022-12-10T06:24:02;101590.22;;;-13.76;80.48
59487;BME280;45298;54.918;73.504;2022-12-10T06:26:31;101560.06;;;-13.83;80.46
59487;BME280;45298;54.918;73.504;2022-12-10T06:29:00;101554.31;;;-13.79;80.48
59487;BME280;45298;54.918;73.504;2022-12-10T06:31:29;101538.22;;;-13.78;80.78
59487;BME280;45298;54.918;73.504;2022-12-10T06:33:58;101553.59;;;-13.63;80.17
59487;BME280;45298;54.918;73.504;2022-12-10T06:36:26;101540.84;;;-13.63;80.56
59487;BME280;45298;54.918;73.504;2022-12-10T06:38:55;101539.25;;;-13.61;80.30
59487;BME280;45298;54.918;73.504;2022-12-10T06:41:24;101574.56;;;-13.39;80.50
59487;BME280;45298;54.918;73.504;2022-12-10T06:43:53;101531.59;;;-13.61;80.71
59487;BME280;45298;54.918;73.504;2022-12-10T06:46:27;101565.25;;;-13.38;80.35
59487;BME280;45298;54.918;73.504;2022-12-10T06:48:57;101556.69;;;-13.39;80.74
59487;BME280;45298;54.918;73.504;2022-12-10T06:51:25;101577.34;;;-13.21;80.99
59487;BME280;45298;54.918;73.504;2022-12-10T06:53:55;101552.94;;;-13.30;80.69
59487;BME280;45298;54.918;73.504;2022-12-10T06:56:24;101575.16;;;-13.14;80.56
59487;BME280;45298;54.918;73.504;2022-12-10T06:58:53;101557.19;;;-13.16;81.11
59487;BME280;45298;54.918;73.504;2022-12-10T07:01:23;101585.66;;;-12.95;81.16
59487;BME280;45298;54.918;73.504;2022-12-10T07:03:56;101552.44;;;-13.10;80.80
59487;BME280;45298;54.918;73.504;2022-12-10T07:06:26;101572.78;;;-12.96;81.27
59487;BME280;45298;54.918;73.504;2022-12-10T07:08:57;101583.44;;;-12.88;81.11
59487;BME280;45298;54.918;73.504;2022-12-10T07:11:26;101558.84;;;-13.01;80.87
59487;BME280;45298;54.918;73.504;2022-12-10T07:13:59;101594.47;;;-12.74;81.30
59487;BME280;45298;54.918;73.504;2022-12-10T07:16:31;101590.16;;;-12.76;80.92
59487;BME280;45298;54.918;73.504;2022-12-10T07:19:01;101443.09;;;-13.62;80.71
59487;BME280;45298;54.918;73.504;2022-12-10T07:21:34;101579.22;;;-12.73;81.24
59487;BME280;45298;54.918;73.504;2022-12-10T07:24:06;101601.25;;;-12.60;80.62
59487;BME280;45298;54.918;73.504;2022-12-10T07:26:37;101585.59;;;-12.66;81.30
59487;BME280;45298;54.918;73.504;2022-12-10T07:29:08;101610.25;;;-12.52;80.37
59487;BME280;45298;54.918;73.504;2022-12-10T07:31:41;101583.81;;;-12.67;80.34
59487;BME280;45298;54.918;73.504;2022-12-10T07:34:11;101602.66;;;-12.50;80.33
59487;BME280;45298;54.918;73.504;2022-12-10T07:36:41;101581.53;;;-12.63;80.57
59487;BME280;45298;54.918;73.504;2022-12-10T07:39:10;101608.06;;;-12.46;81.25
59487;BME280;45298;54.918;73.504;2022-12-10T07:41:48;101578.06;;;-12.63;80.41
59487;BME280;45298;54.918;73.504;2022-12-10T07:44:22;101591.88;;;-12.45;81.49
59487;BME280;45298;54.918;73.504;2022-12-10T07:46:53;101595.59;;;-12.39;81.53
59487;BME280;45298;54.918;73.504;2022-12-10T07:49:23;101608.44;;;-12.23;80.63
59487;BME280;45298;54.918;73.504;2022-12-10T07:51:52;101608.28;;;-12.26;81.41
59487;BME280;45298;54.918;73.504;2022-12-10T07:54:21;101583.97;;;-12.34;81.08
59487;BME280;45298;54.918;73.504;2022-12-10T07:56:50;101579.81;;;-12.32;80.76
59487;BME280;45298;54.918;73.504;2022-12-10T07:59:19;101594.53;;;-12.28;80.51
59487;BME280;45298;54.918;73.504;2022-12-10T08:01:48;101605.44;;;-12.16;80.92
59487;BME280;45298;54.918;73.504;2022-12-10T08:04:18;101616.88;;;-12.09;81.79
59487;BME280;45298;54.918;73.504;2022-12-10T08:06:47;101610.38;;;-12.19;80.55
59487;BME280;45298;54.918;73.504;2022-12-10T08:09:16;101488.91;;;-12.88;81.47
59487;BME280;45298;54.918;73.504;2022-12-10T08:11:45;101568.63;;;-12.34;81.47
59487;BME280;45298;54.918;73.504;2022-12-10T08:14:14;101606.41;;;-12.13;81.44
59487;BME280;45298;54.918;73.504;2022-12-10T08:16:43;101623.16;;;-12.04;80.57
59487;BME280;45298;54.918;73.504;2022-12-10T08:19:12;101627.69;;;-11.98;80.55
59487;BME280;45298;54.918;73.504;2022-12-10T08:21:48;101545.19;;;-12.42;80.58
59487;BME280;45298;54.918;73.504;2022-12-10T08:24:17;101630.41;;;-11.95;80.37
59487;BME280;45298;54.918;73.504;2022-12-10T08:26:46;101637.88;;;-11.83;79.99
59487;BME280;45298;54.918;73.504;2022-12-10T08:29:15;101613.16;;;-11.99;80.21
59487;BME280;45298;54.918;73.504;2022-12-10T08:31:44;101619.38;;;-11.94;79.96
59487;BME280;45298;54.918;73.504;2022-12-10T08:34:17;101641.50;;;-11.79;79.97
59487;BME280;45298;54.918;73.504;2022-12-10T08:36:46;101639.72;;;-11.80;81.11
59487;BME280;45298;54.918;73.504;2022-12-10T08:39:16;101620.66;;;-11.86;80.89
59487;BME280;45298;54.918;73.504;2022-12-10T08:41:45;101627.47;;;-11.86;81.32
59487;BME280;45298;54.918;73.504;2022-12-10T08:44:15;101633.97;;;-11.76;80.94
59487;BME280;45298;54.918;73.504;2022-12-10T08:46:43;101628.69;;;-11.79;81.33
59487;BME280;45298;54.918;73.504;2022-12-10T08:49:12;101655.03;;;-11.65;80.48
59487;BME280;45298;54.918;73.504;2022-12-10T08:51:41;101658.47;;;-11.65;80.50
59487;BME280;45298;54.918;73.504;2022-12-10T08:54:10;101649.03;;;-11.66;81.29
59487;BME280;45298;54.918;73.504;2022-12-10T08:56:39;101588.91;;;-12.06;81.16
59487;BME280;45298;54.918;73.504;2022-12-10T08:59:08;101653.03;;;-11.71;81.21
59487;BME280;45298;54.918;73.504;2022-12-10T09:01:36;101653.28;;;-11.66;80.35
59487;BME280;45298;54.918;73.504;2022-12-10T09:04:05;101649.59;;;-11.72;81.16
59487;BME280;45298;54.918;73.504;2022-12-10T09:06:34;101631.06;;;-11.82;79.99
59487;BME280;45298;54.918;73.504;2022-12-10T09:09:03;101637.09;;;-11.82;81.63
59487;BME280;45298;54.918;73.504;2022-12-10T09:11:33;101597.47;;;-12.05;81.26
59487;BME280;45298;54.918;73.504;2022-12-10T09:14:05;101632.22;;;-11.77;80.78
59487;BME280;45298;54.918;73.504;2022-12-10T09:16:35;101659.19;;;-11.67;81.25
59487;BME280;45298;54.918;73.504;2022-12-10T09:19:05;101666.00;;;-11.68;80.37
59487;BME280;45298;54.918;73.504;2022-12-10T09:21:34;101657.00;;;-11.76;80.55
59487;BME280;45298;54.918;73.504;2022-12-10T09:24:03;101656.84;;;-11.79;80.60
59487;BME280;45298;54.918;73.504;2022-12-10T09:26:32;101652.09;;;-11.88;80.13
59487;BME280;45298;54.918;73.504;2022-12-10T09:29:01;101666.06;;;-11.98;80.70
59487;BME280;45298;54.918;73.504;2022-12-10T09:31:31;101670.47;;;-11.95;80.30
59487;BME280;45298;54.918;73.504;2022-12-10T09:33:59;101668.94;;;-12.08;80.07
59487;BME280;45298;54.918;73.504;2022-12-10T09:36:28;101664.19;;;-12.17;80.67
59487;BME280;45298;54.918;73.504;2022-12-10T09:39:00;101655.13;;;-12.27;80.35
59487;BME280;45298;54.918;73.504;2022-12-10T09:46:55;101690.94;;;-12.27;80.57
59487;BME280;45298;54.918;73.504;2022-12-10T09:52:12;101694.69;;;-12.35;80.77
59487;BME280;45298;54.918;73.504;2022-12-10T09:55:02;101701.94;;;-12.28;81.13
59487;BME280;45298;54.918;73.504;2022-12-10T09:57:37;101682.63;;;-12.38;81.29
59487;BME280;45298;54.918;73.504;2022-12-10T10:00:30;101709.78;;;-12.25;81.09
59487;BME280;45298;54.918;73.504;2022-12-10T10:03:01;101675.03;;;-12.36;80.93
59487;BME280;45298;54.918;73.504;2022-12-10T10:05:36;101716.22;;;-12.17;81.01
59487;BME280;45298;54.918;73.504;2022-12-10T10:08:14;101697.81;;;-12.26;80.64
59487;BME280;45298;54.918;73.504;2022-12-10T10:10:46;101712.88;;;-12.16;81.40
59487;BME280;45298;54.918;73.504;2022-12-10T10:13:28;101697.09;;;-12.23;80.79
59487;BME280;45298;54.918;73.504;2022-12-10T10:19:06;101696.84;;;-12.28;81.60
59487;BME280;45298;54.918;73.504;2022-12-10T10:21:44;101713.84;;;-12.28;82.11
59487;BME280;45298;54.918;73.504;2022-12-10T10:24:17;101718.94;;;-12.28;82.17
59487;BME280;45298;54.918;73.504;2022-12-10T10:26:48;101722.22;;;-12.31;80.94
59487;BME280;45298;54.918;73.504;2022-12-10T10:29:20;101757.06;;;-12.18;80.99
59487;BME280;45298;54.918;73.504;2022-12-10T10:32:12;101749.47;;;-12.32;82.25
59487;BME280;45298;54.918;73.504;2022-12-10T10:34:42;101717.50;;;-12.53;81.45
59487;BME280;45298;54.918;73.504;2022-12-10T10:37:39;101739.72;;;-12.52;81.13
59487;BME280;45298;54.918;73.504;2022-12-10T10:40:28;101739.28;;;-12.60;81.32
59487;BME280;45298;54.918;73.504;2022-12-10T10:42:59;101774.03;;;-12.49;82.28
59487;BME280;45298;54.918;73.504;2022-12-10T10:48:13;101799.63;;;-12.49;82.56
59487;BME280;45298;54.918;73.504;2022-12-10T10:50:48;101775.84;;;-12.61;81.66
59487;BME280;45298;54.918;73.504;2022-12-10T10:53:59;101801.19;;;-12.51;81.74
59487;BME280;45298;54.918;73.504;2022-12-10T10:58:52;101775.66;;;-12.64;81.44
59487;BME280;45298;54.918;73.504;2022-12-10T11:01:25;101809.31;;;-12.43;82.50
59487;BME280;45298;54.918;73.504;2022-12-10T11:03:58;101798.63;;;-12.51;82.06
59487;BME280;45298;54.918;73.504;2022-12-10T11:06:28;101727.13;;;-12.93;82.17
59487;BME280;45298;54.918;73.504;2022-12-10T11:08:58;101794.13;;;-12.55;82.74
59487;BME280;45298;54.918;73.504;2022-12-10T11:11:34;101807.28;;;-12.49;81.48
59487;BME280;45298;54.918;73.504;2022-12-10T11:14:19;101820.41;;;-12.42;81.72
59487;BME280;45298;54.918;73.504;2022-12-10T11:17:12;101797.66;;;-12.53;82.56
59487;BME280;45298;54.918;73.504;2022-12-10T11:19:57;101815.16;;;-12.46;81.16
59487;BME280;45298;54.918;73.504;2022-12-10T11:22:32;101802.19;;;-12.62;81.30
59487;BME280;45298;54.918;73.504;2022-12-10T11:25:01;101741.19;;;-12.99;81.96
59487;BME280;45298;54.918;73.504;2022-12-10T11:27:39;101793.88;;;-12.73;82.22
59487;BME280;45298;54.918;73.504;2022-12-10T11:30:24;101825.78;;;-12.53;81.76
59487;BME280;45298;54.918;73.504;2022-12-10T11:49:55;101856.31;;;-12.41;82.50
59487;BME280;45298;54.918;73.504;2022-12-10T12:04:05;101848.00;;;-12.52;82.61
59487;BME280;45298;54.918;73.504;2022-12-10T12:07:07;101882.34;;;-12.33;81.41
59487;BME280;45298;54.918;73.504;2022-12-10T12:15:16;101894.53;;;-12.29;81.73
59487;BME280;45298;54.918;73.504;2022-12-10T12:17:55;101876.66;;;-12.42;82.85
59487;BME280;45298;54.918;73.504;2022-12-10T12:20:31;101875.88;;;-12.41;81.66
59487;BME280;45298;54.918;73.504;2022-12-10T12:23:15;101774.72;;;-13.08;81.82
59487;BME280;45298;54.918;73.504;2022-12-10T12:25:49;101904.78;;;-12.29;82.25
59487;BME280;45298;54.918;73.504;2022-12-10T12:28:24;101902.81;;;-12.33;82.67
59487;BME280;45298;54.918;73.504;2022-12-10T12:31:15;101918.34;;;-12.30;82.80
59487;BME280;45298;54.918;73.504;2022-12-10T12:36:21;101889.09;;;-12.49;81.42
59487;BME280;45298;54.918;73.504;2022-12-10T12:42:14;101932.78;;;-12.31;82.53
59487;BME280;45298;54.918;73.504;2022-12-10T12:44:59;101911.19;;;-12.49;81.97
59487;BME280;45298;54.918;73.504;2022-12-10T12:50:28;101907.66;;;-12.51;82.31
59487;BME280;45298;54.918;73.504;2022-12-10T12:53:02;101943.34;;;-12.39;82.18
59487;BME280;45298;54.918;73.504;2022-12-10T12:58:40;101937.25;;;-12.41;83.07
59487;BME280;45298;54.918;73.504;2022-12-10T13:01:29;101964.38;;;-12.30;82.86
59487;BME280;45298;54.918;73.504;2022-12-10T13:04:00;101957.31;;;-12.34;82.98
59487;BME280;45298;54.918;73.504;2022-12-10T13:06:31;101962.63;;;-12.31;82.74
59487;BME280;45298;54.918;73.504;2022-12-10T13:09:26;101943.16;;;-12.42;82.26
59487;BME280;45298;54.918;73.504;2022-12-10T13:17:32;101896.81;;;-12.76;81.92
59487;BME280;45298;54.918;73.504;2022-12-10T13:23:04;101987.59;;;-12.27;82.68
59487;BME280;45298;54.918;73.504;2022-12-10T13:28:20;101994.47;;;-12.26;82.42
59487;BME280;45298;54.918;73.504;2022-12-10T13:33:51;102009.13;;;-12.23;83.17
59487;BME280;45298;54.918;73.504;2022-12-10T13:36:27;101980.91;;;-12.38;82.85
59487;BME280;45298;54.918;73.504;2022-12-10T13:45:06;102011.56;;;-12.25;83.11
59487;BME280;45298;54.918;73.504;2022-12-10T13:51:21;102014.81;;;-12.27;81.57
59487;BME280;45298;54.918;73.504;2022-12-10T13:54:58;101962.66;;;-12.58;81.89
59487;BME280;45298;54.918;73.504;2022-12-10T13:59:46;102021.44;;;-12.31;82.61
59487;BME280;45298;54.918;73.504;2022-12-10T14:03:33;102021.25;;;-12.34;82.15
59487;BME280;45298;54.918;73.504;2022-12-10T14:06:00;102021.25;;;-12.34;83.15
59487;BME280;45298;54.918;73.504;2022-12-10T14:08:34;101989.69;;;-12.62;82.76
59487;BME280;45298;54.918;73.504;2022-12-10T14:11:08;102009.06;;;-12.52;82.23
59487;BME280;45298;54.918;73.504;2022-12-10T14:13:45;102011.50;;;-12.53;82.28
59487;BME280;45298;54.918;73.504;2022-12-10T14:16:19;102006.69;;;-12.62;81.92
59487;BME280;45298;54.918;73.504;2022-12-10T14:18:57;102039.16;;;-12.48;83.02
59487;BME280;45298;54.918;73.504;2022-12-10T14:21:32;101994.91;;;-12.73;82.27
59487;BME280;45298;54.918;73.504;2022-12-10T14:24:02;102034.81;;;-12.62;82.47
59487;BME280;45298;54.918;73.504;2022-12-10T14:26:33;102025.84;;;-12.69;82.89
59487;BME280;45298;54.918;73.504;2022-12-10T14:31:38;102041.00;;;-12.72;82.53
59487;BME280;45298;54.918;73.504;2022-12-10T14:34:16;102039.22;;;-12.73;82.48
59487;BME280;45298;54.918;73.504;2022-12-10T14:36:48;102011.59;;;-12.92;82.93
59487;BME280;45298;54.918;73.504;2022-12-10T14:39:23;102011.97;;;-12.99;82.88
59487;BME280;45298;54.918;73.504;2022-12-10T14:41:57;102042.69;;;-12.86;83.33
59487;BME280;45298;54.918;73.504;2022-12-10T14:44:27;102008.63;;;-13.12;82.96